Time;durP1;ratioP1;P1;durP2;ratioP2;P2;SDS_P1;SDS_P2;PMS_P1;PMS_P2;Temp;Humidity;BMP_temperature;BMP_pressure;BME280_temperature;BME280_humidity;BME280_pressure;Samples;Min_cycle;Max_cycle;Signal;HPM_P1;HPM_P2
2021/04/23 00:00:41;;;;;;;9.63;7.90;;;;;;;6.17;81.43;99105.13;1774712;79;21492;-57
2021/04/23 00:03:32;;;;;;;8.70;7.83;;;;;;;6.16;81.47;99112.70;1787309;79;21025;-57
2021/04/23 00:06:41;;;;;;;11.60;8.53;;;;;;;6.13;81.35;99107.72;1814952;78;22733;-57
2021/04/23 00:09:21;;;;;;;9.05;7.58;;;;;;;6.05;81.32;99114.24;1789418;79;21562;-56
2021/04/23 00:11:54;;;;;;;9.73;7.75;;;;;;;6.04;81.33;99107.32;1792085;79;21045;-56
2021/04/23 00:14:27;;;;;;;8.83;7.80;;;;;;;6.03;81.17;99118.85;1709643;82;21567;-57
2021/04/23 00:16:55;;;;;;;10.80;7.80;;;;;;;5.99;81.07;99113.55;1734194;81;21522;-58
2021/04/23 00:19:25;;;;;;;13.08;7.85;;;;;;;5.96;81.24;99108.56;1734246;81;21616;-57
2021/04/23 00:21:53;;;;;;;12.28;8.10;;;;;;;5.94;81.15;99106.56;1753508;81;21582;-60
2021/04/23 00:24:21;;;;;;;11.63;8.68;;;;;;;5.90;81.13;99106.51;1739556;80;21386;-57
2021/04/23 00:26:50;;;;;;;10.43;7.42;;;;;;;5.84;81.02;99108.90;1733894;81;21661;-58
2021/04/23 00:29:18;;;;;;;10.03;7.62;;;;;;;5.78;80.97;99110.32;1738530;81;20982;-60
2021/04/23 00:34:36;;;;;;;9.13;6.60;;;;;;;5.66;81.04;99116.77;1735691;81;21116;-59
2021/04/23 00:37:04;;;;;;;8.95;7.00;;;;;;;5.62;81.06;99118.05;1747055;81;21404;-58
2021/04/23 00:39:32;;;;;;;10.75;6.92;;;;;;;5.58;81.11;99111.39;1727234;82;21009;-58
2021/04/23 00:41:59;;;;;;;7.47;6.42;;;;;;;5.55;81.21;99115.67;1739111;81;21187;-58
2021/04/23 00:44:29;;;;;;;9.75;7.95;;;;;;;5.53;81.24;99122.88;1734266;81;20968;-56
2021/04/23 00:46:56;;;;;;;10.13;7.58;;;;;;;5.50;81.23;99121.88;1734291;81;20949;-58
2021/04/23 00:49:24;;;;;;;8.98;7.80;;;;;;;5.48;81.20;99123.81;1736488;81;21245;-57
2021/04/23 00:51:58;;;;;;;8.13;6.78;;;;;;;5.47;81.08;99123.00;1721821;81;21186;-57
2021/04/23 00:54:27;;;;;;;7.40;6.75;;;;;;;5.44;81.11;99119.34;1734395;81;21056;-59
2021/04/23 00:56:56;;;;;;;10.15;7.83;;;;;;;5.40;81.03;99121.91;1734205;81;21009;-56
2021/04/23 00:59:24;;;;;;;12.35;8.48;;;;;;;5.36;81.13;99119.23;1737853;81;21211;-56
2021/04/23 01:01:57;;;;;;;9.98;7.15;;;;;;;5.32;81.18;99121.80;1734293;81;21596;-59
2021/04/23 01:07:05;;;;;;;10.35;7.78;;;;;;;5.35;81.43;99128.11;1821642;78;28929;-62
2021/04/23 01:09:35;;;;;;;9.73;6.75;;;;;;;5.32;81.40;99139.46;1778581;79;21049;-57
2021/04/23 01:12:05;;;;;;;9.98;7.58;;;;;;;5.31;81.47;99140.42;1778163;79;22298;-58
2021/04/23 01:14:33;;;;;;;14.80;7.80;;;;;;;5.25;81.53;99137.88;1772031;79;20945;-57
2021/04/23 01:17:01;;;;;;;10.80;7.95;;;;;;;5.20;81.49;99137.48;1775459;79;20910;-58
2021/04/23 01:19:31;;;;;;;10.20;7.05;;;;;;;5.14;81.51;99135.89;1786251;79;20925;-60
2021/04/23 01:21:59;;;;;;;9.10;6.80;;;;;;;5.11;81.76;99146.75;1777463;79;20985;-57
2021/04/23 01:24:27;;;;;;;8.38;7.15;;;;;;;5.09;81.95;99149.52;1765907;79;23537;-57
2021/04/23 01:26:55;;;;;;;8.50;6.55;;;;;;;5.08;81.95;99153.14;1762172;79;21068;-58
2021/04/23 01:29:25;;;;;;;10.68;7.92;;;;;;;5.08;81.95;99154.47;1782942;79;20914;-58
2021/04/23 01:31:56;;;;;;;7.80;6.30;;;;;;;5.07;81.89;99153.27;1780070;79;20929;-57
2021/04/23 01:34:31;;;;;;;11.93;7.92;;;;;;;5.06;81.79;99147.67;1777081;79;21458;-61
2021/04/23 01:36:59;;;;;;;9.33;6.80;;;;;;;5.05;81.62;99157.38;1801428;79;22355;-59
2021/04/23 01:39:29;;;;;;;8.30;6.72;;;;;;;5.02;81.69;99155.51;1748279;81;21576;-57
2021/04/23 01:41:56;;;;;;;8.08;6.00;;;;;;;5.00;81.80;99163.58;1741837;82;21157;-59
2021/04/23 01:44:25;;;;;;;8.38;6.53;;;;;;;4.99;81.69;99156.63;1721777;82;21642;-57
2021/04/23 01:46:53;;;;;;;10.48;6.97;;;;;;;4.97;81.58;99158.09;1728681;81;21132;-58
2021/04/23 01:49:22;;;;;;;8.98;6.97;;;;;;;4.95;81.45;99159.22;1727743;82;21183;-57
2021/04/23 01:51:56;;;;;;;11.60;7.50;;;;;;;4.94;81.42;99162.33;1750213;82;20986;-57
2021/04/23 01:54:24;;;;;;;9.60;6.35;;;;;;;4.91;81.14;99163.93;1729113;81;21116;-59
2021/04/23 01:56:53;;;;;;;8.28;7.03;;;;;;;4.90;81.19;99166.72;1750147;82;21136;-61
2021/04/23 01:59:21;;;;;;;9.93;7.00;;;;;;;4.91;80.92;99160.45;1746341;82;21156;-58
2021/04/23 02:01:50;;;;;;;9.73;6.17;;;;;;;4.89;80.73;99164.56;1731900;82;21363;-59
2021/04/23 02:04:18;;;;;;;10.55;7.20;;;;;;;4.86;80.59;99161.38;1750027;82;21566;-59
2021/04/23 02:06:47;;;;;;;13.35;7.10;;;;;;;4.84;80.54;99166.80;1736254;81;21009;-59
2021/04/23 02:09:15;;;;;;;10.25;7.22;;;;;;;4.80;80.50;99160.13;1738353;82;21026;-60
2021/04/23 02:11:45;;;;;;;13.18;7.47;;;;;;;4.74;80.47;99159.88;1740562;81;21574;-57
2021/04/23 02:14:13;;;;;;;9.93;7.87;;;;;;;4.70;80.64;99160.64;1715117;82;21315;-59
2021/04/23 02:16:42;;;;;;;10.45;7.35;;;;;;;4.68;80.76;99164.38;1714910;80;21097;-61
2021/04/23 02:19:12;;;;;;;8.70;7.45;;;;;;;4.69;80.75;99165.55;1718974;82;21500;-58
2021/04/23 02:21:41;;;;;;;10.43;8.95;;;;;;;4.72;80.64;99169.23;1718795;82;21121;-58
2021/04/23 02:24:09;;;;;;;10.95;9.23;;;;;;;4.72;80.50;99162.64;1714625;82;21049;-58
2021/04/23 02:26:37;;;;;;;10.95;9.08;;;;;;;4.70;80.44;99171.17;1714580;82;21369;-58
2021/04/23 02:29:09;;;;;;;10.15;8.65;;;;;;;4.70;80.38;99171.17;1716615;82;21570;-60
2021/04/23 02:31:38;;;;;;;11.65;9.00;;;;;;;4.65;80.34;99169.45;1715467;82;21010;-57
2021/04/23 02:34:09;;;;;;;12.78;8.05;;;;;;;4.63;80.38;99174.03;1714605;82;21155;-59
2021/04/23 02:36:38;;;;;;;12.50;8.10;;;;;;;4.60;80.42;99178.27;1714644;82;21223;-57
2021/04/23 02:39:09;;;;;;;13.60;8.63;;;;;;;4.58;80.43;99176.74;1717390;80;22397;-58
2021/04/23 02:41:36;;;;;;;7.83;7.03;;;;;;;4.57;80.55;99176.38;1724490;82;21587;-58
2021/04/23 02:44:04;;;;;;;8.18;7.33;;;;;;;4.55;80.56;99174.38;1719399;82;20955;-57
2021/04/23 02:46:32;;;;;;;10.03;8.05;;;;;;;4.52;80.51;99181.24;1714543;82;21116;-58
2021/04/23 02:49:04;;;;;;;10.18;9.15;;;;;;;4.44;80.47;99177.98;1718368;82;21175;-60
2021/04/23 02:51:36;;;;;;;15.83;9.03;;;;;;;4.37;80.50;99178.20;1728041;82;21358;-57
2021/04/23 02:54:05;;;;;;;8.80;7.92;;;;;;;4.29;80.66;99180.21;1714528;82;21183;-59
2021/04/23 02:56:36;;;;;;;11.33;8.75;;;;;;;4.21;80.77;99184.49;1724588;82;21168;-58
2021/04/23 02:59:05;;;;;;;10.00;8.20;;;;;;;4.13;80.99;99188.30;1741891;82;21002;-58
2021/04/23 03:01:43;;;;;;;11.28;8.55;;;;;;;4.09;81.16;99180.33;1744272;82;21118;-60
2021/04/23 03:04:10;;;;;;;10.03;7.97;;;;;;;4.05;81.30;99184.19;1744225;81;21205;-58
2021/04/23 03:06:39;;;;;;;11.63;9.03;;;;;;;3.99;81.39;99194.77;1743410;82;21135;-59
2021/04/23 03:09:07;;;;;;;15.75;9.48;;;;;;;3.94;81.50;99189.09;1740809;82;21177;-60
2021/04/23 03:11:39;;;;;;;9.43;8.43;;;;;;;3.90;81.63;99191.66;1741527;82;21128;-59
2021/04/23 03:14:07;;;;;;;12.15;9.38;;;;;;;3.87;81.62;99191.08;1713338;82;21136;-59
2021/04/23 03:16:39;;;;;;;10.63;8.83;;;;;;;3.85;81.64;99195.66;1713280;82;21362;-56
2021/04/23 03:19:14;;;;;;;10.05;7.42;;;;;;;3.80;81.57;99198.70;1779789;79;20962;-57
2021/04/23 03:21:42;;;;;;;11.55;7.97;;;;;;;3.76;81.56;99192.02;1792827;79;21471;-56
2021/04/23 03:24:12;;;;;;;8.75;7.62;;;;;;;3.71;81.54;99200.33;1777574;79;21064;-58
2021/04/23 03:26:42;;;;;;;8.48;6.67;;;;;;;3.68;81.57;99194.48;1781578;79;21084;-57
2021/04/23 03:29:11;;;;;;;11.40;8.00;;;;;;;3.64;81.60;99193.10;1775028;78;21355;-57
2021/04/23 03:31:39;;;;;;;10.95;7.87;;;;;;;3.61;81.59;99199.94;1771852;79;21562;-58
2021/04/23 03:34:07;;;;;;;10.75;7.25;;;;;;;3.57;81.57;99198.55;1795014;79;20974;-58
2021/04/23 03:36:34;;;;;;;10.50;7.05;;;;;;;3.55;81.61;99200.47;1781827;79;21179;-57
2021/04/23 03:39:05;;;;;;;10.45;6.95;;;;;;;3.54;81.78;99200.13;1792569;79;21040;-59
2021/04/23 03:41:33;;;;;;;8.78;7.67;;;;;;;3.57;81.77;99203.31;1786385;79;21370;-57
2021/04/23 03:44:01;;;;;;;10.35;6.45;;;;;;;3.60;81.82;99207.00;1780240;79;21843;-58
2021/04/23 03:46:28;;;;;;;8.15;6.30;;;;;;;3.71;82.00;99206.06;1787968;79;21139;-58
2021/04/23 03:48:58;;;;;;;11.00;7.05;;;;;;;3.90;82.31;99208.77;1777885;79;21009;-59
2021/04/23 03:51:25;;;;;;;11.65;6.90;;;;;;;4.16;82.29;99211.72;1790405;79;21167;-57
2021/04/23 03:53:53;;;;;;;7.35;5.70;;;;;;;4.51;81.57;99209.89;1783481;79;21628;-58
2021/04/23 03:56:21;;;;;;;10.93;6.47;;;;;;;4.89;80.20;99209.86;1788299;79;20966;-59
2021/04/23 03:58:49;;;;;;;7.97;5.75;;;;;;;5.29;79.21;99210.96;1783693;79;21578;-57
2021/04/23 04:01:22;;;;;;;8.63;6.08;;;;;;;5.70;77.59;99210.53;1782152;79;21611;-60
2021/04/23 04:03:50;;;;;;;8.33;6.12;;;;;;;6.08;75.73;99210.34;1786779;79;20966;-60
2021/04/23 04:06:18;;;;;;;7.33;6.15;;;;;;;6.44;74.13;99211.72;1791180;78;22084;-57
2021/04/23 04:08:48;;;;;;;8.68;6.55;;;;;;;6.75;72.54;99211.67;1788522;79;20950;-58
2021/04/23 04:11:19;;;;;;;7.40;5.78;;;;;;;7.06;71.14;99205.46;1785470;79;21105;-59
2021/04/23 04:13:50;;;;;;;7.53;5.72;;;;;;;7.41;70.13;99214.13;1774969;79;20993;-58
2021/04/23 04:16:18;;;;;;;6.92;5.75;;;;;;;7.75;68.88;99210.16;1790932;79;21101;-57
2021/04/23 04:18:46;;;;;;;8.43;5.67;;;;;;;8.08;67.71;99214.59;1777766;79;22161;-60
2021/04/23 04:21:16;;;;;;;9.88;6.67;;;;;;;8.41;66.26;99216.04;1747986;79;21558;-58
2021/04/23 04:23:43;;;;;;;9.48;6.15;;;;;;;8.58;64.65;99225.66;1773983;79;20989;-59
2021/04/23 04:26:13;;;;;;;11.22;6.15;;;;;;;8.64;63.93;99223.70;1787759;79;20954;-58
2021/04/23 04:28:40;;;;;;;7.35;5.80;;;;;;;8.66;63.50;99222.53;1795336;79;21512;-57
2021/04/23 04:31:08;;;;;;;9.95;6.58;;;;;;;8.68;63.16;99223.72;1794951;79;21382;-58
2021/04/23 04:33:37;;;;;;;8.73;6.62;;;;;;;8.66;62.82;99227.00;1779813;79;20946;-58
2021/04/23 04:36:05;;;;;;;15.70;7.80;;;;;;;8.60;62.59;99229.81;1780457;79;21148;-57
2021/04/23 04:38:33;;;;;;;14.95;7.95;;;;;;;8.55;62.34;99232.13;1772169;79;21183;-58
2021/04/23 04:41:00;;;;;;;9.05;7.20;;;;;;;8.41;62.14;99233.27;1778750;79;20930;-62
2021/04/23 04:43:28;;;;;;;10.08;6.78;;;;;;;8.38;62.42;99229.61;1771232;79;21381;-58
2021/04/23 04:45:58;;;;;;;8.65;6.83;;;;;;;8.47;62.27;99236.09;1771285;79;21135;-59
2021/04/23 04:48:27;;;;;;;7.83;6.20;;;;;;;8.48;61.90;99237.75;1784264;79;21016;-57
2021/04/23 04:50:59;;;;;;;8.90;6.37;;;;;;;8.53;61.89;99242.08;1777996;79;21029;-58
2021/04/23 04:53:27;;;;;;;12.05;5.97;;;;;;;8.60;61.59;99243.07;1776668;79;21120;-59
2021/04/23 04:55:56;;;;;;;8.80;6.35;;;;;;;8.79;61.91;99239.77;1783633;79;21194;-58
2021/04/23 04:58:29;;;;;;;12.10;5.25;;;;;;;9.08;61.05;99238.30;1771570;79;21094;-59
2021/04/23 05:00:57;;;;;;;11.35;5.12;;;;;;;9.32;60.08;99237.45;1785187;79;21033;-59
2021/04/23 05:03:25;;;;;;;8.03;5.30;;;;;;;9.65;59.62;99239.53;1790377;79;21044;-57
2021/04/23 05:05:52;;;;;;;14.90;5.85;;;;;;;10.01;59.06;99234.09;1771446;79;21048;-59
2021/04/23 05:08:20;;;;;;;13.28;5.80;;;;;;;10.44;58.41;99233.59;1765618;79;21801;-60
2021/04/23 05:10:48;;;;;;;10.95;6.92;;;;;;;10.88;56.57;99232.47;1765802;78;21022;-62
2021/04/23 05:13:15;;;;;;;7.95;5.65;;;;;;;11.23;55.70;99227.52;1769366;79;21123;-59
2021/04/23 05:15:43;;;;;;;10.58;5.92;;;;;;;11.53;54.07;99232.71;1769132;79;21088;-57
2021/04/23 05:18:11;;;;;;;7.90;5.95;;;;;;;11.73;53.29;99224.52;1769749;78;21539;-60
2021/04/23 05:20:39;;;;;;;9.00;5.75;;;;;;;11.97;52.84;99227.41;1782842;79;21363;-62
2021/04/23 05:23:07;;;;;;;7.97;6.08;;;;;;;12.15;51.59;99227.86;1777824;78;21172;-57
2021/04/23 05:25:35;;;;;;;8.75;5.85;;;;;;;12.24;51.04;99229.92;1782394;78;20907;-60
2021/04/23 05:28:03;;;;;;;7.87;5.62;;;;;;;12.33;51.09;99224.28;1779549;79;21120;-57
2021/04/23 05:30:33;;;;;;;7.47;5.80;;;;;;;12.51;50.73;99230.56;1780614;79;21136;-60
2021/04/23 05:33:01;;;;;;;10.48;6.05;;;;;;;12.64;50.05;99237.38;1777001;79;22092;-59
2021/04/23 05:35:30;;;;;;;6.62;4.97;;;;;;;12.65;49.59;99228.83;1782049;79;21053;-58
2021/04/23 05:38:00;;;;;;;9.80;5.10;;;;;;;12.72;49.55;99235.89;1782830;79;20927;-58
2021/04/23 05:40:37;;;;;;;11.80;4.92;;;;;;;12.92;49.47;99230.27;1781934;79;21113;-58
2021/04/23 05:43:05;;;;;;;8.53;4.47;;;;;;;13.17;49.13;99232.55;1777749;79;21097;-58
2021/04/23 05:45:34;;;;;;;7.75;5.20;;;;;;;13.44;48.18;99231.75;1779154;79;21192;-58
2021/04/23 05:48:02;;;;;;;7.72;4.83;;;;;;;13.70;47.61;99231.09;1791475;78;21132;-57
2021/04/23 05:50:31;;;;;;;8.98;5.40;;;;;;;13.96;46.73;99228.58;1735450;81;21496;-56
2021/04/23 05:52:58;;;;;;;12.85;5.12;;;;;;;14.12;45.50;99238.45;1711601;81;21172;-58
2021/04/23 05:55:25;;;;;;;7.95;4.40;;;;;;;14.18;45.15;99235.50;1783118;79;21022;-58
2021/04/23 05:57:55;;;;;;;10.78;5.75;;;;;;;14.33;45.20;99230.02;1772205;78;22375;-57
2021/04/23 06:00:24;;;;;;;8.60;5.33;;;;;;;14.66;44.67;99226.93;1774209;78;21077;-60
2021/04/23 06:02:53;;;;;;;11.25;4.80;;;;;;;15.06;43.95;99226.49;1779397;79;21503;-60
2021/04/23 06:05:21;;;;;;;9.33;4.90;;;;;;;15.18;42.87;99233.70;1781736;79;21503;-60
2021/04/23 06:07:48;;;;;;;8.38;4.47;;;;;;;15.01;42.49;99239.67;1790943;79;21582;-61
2021/04/23 06:10:16;;;;;;;6.70;4.67;;;;;;;14.83;42.94;99238.39;1800331;79;21195;-59
2021/04/23 06:12:44;;;;;;;5.70;4.40;;;;;;;14.73;42.59;99239.84;1792906;79;20993;-59
2021/04/23 06:15:13;;;;;;;5.67;4.30;;;;;;;14.61;43.11;99238.25;1785103;79;21036;-59
2021/04/23 06:17:41;;;;;;;7.17;4.30;;;;;;;14.52;42.96;99243.46;1784638;79;21486;-58
2021/04/23 06:20:12;;;;;;;14.53;4.80;;;;;;;14.46;43.67;99239.44;1782464;79;21574;-59
2021/04/23 06:22:40;;;;;;;9.50;4.22;;;;;;;14.74;43.69;99244.15;1783167;79;21376;-58
2021/04/23 06:25:10;;;;;;;6.70;4.10;;;;;;;15.21;42.97;99244.53;1787109;79;21147;-61
2021/04/23 06:27:38;;;;;;;7.03;4.45;;;;;;;15.73;42.05;99239.17;1737525;82;21616;-59
2021/04/23 06:30:09;;;;;;;7.83;4.50;;;;;;;16.11;40.39;99241.16;1776038;79;21112;-59
2021/04/23 06:32:39;;;;;;;7.10;4.05;;;;;;;16.42;39.73;99243.41;1782420;79;21107;-58
2021/04/23 06:35:08;;;;;;;5.97;3.90;;;;;;;16.48;38.76;99239.86;1782451;79;21385;-60
2021/04/23 06:37:36;;;;;;;7.50;4.03;;;;;;;16.45;38.35;99240.28;1782403;79;21036;-59
2021/04/23 06:40:05;;;;;;;8.63;4.37;;;;;;;16.44;38.32;99240.50;1782779;79;21104;-59
2021/04/23 06:42:36;;;;;;;7.78;3.92;;;;;;;16.61;37.90;99241.16;1786731;79;21040;-60
2021/04/23 06:45:06;;;;;;;9.18;3.62;;;;;;;16.72;37.82;99245.03;1786436;79;21080;-59
2021/04/23 06:47:34;;;;;;;8.43;3.85;;;;;;;16.98;37.03;99239.50;1785486;79;22332;-59
2021/04/23 06:50:03;;;;;;;6.90;3.95;;;;;;;17.12;36.70;99241.59;1782361;79;20993;-60
2021/04/23 06:52:31;;;;;;;7.25;3.27;;;;;;;17.12;36.70;99241.59;1782403;79;20962;-59
2021/04/23 06:54:59;;;;;;;7.72;3.30;;;;;;;17.24;36.22;99245.20;1786729;79;21111;-58
2021/04/23 06:57:27;;;;;;;4.37;3.05;;;;;;;17.23;36.12;99244.92;1800565;79;21131;-60
2021/04/23 06:59:54;;;;;;;4.37;3.17;;;;;;;17.12;36.23;99242.41;1789497;79;23512;-60
2021/04/23 07:02:22;;;;;;;9.08;4.15;;;;;;;17.15;36.17;99247.33;1793728;79;21072;-57
2021/04/23 07:04:49;;;;;;;8.28;3.50;;;;;;;17.24;39.48;99246.55;1789649;79;21088;-70
2021/04/23 07:07:16;;;;;;;9.43;3.47;;;;;;;17.55;37.56;99241.15;1794168;79;21139;-60
2021/04/23 07:09:44;;;;;;;11.75;4.50;;;;;;;17.66;35.87;99239.61;1787396;79;21127;-58
2021/04/23 07:12:12;;;;;;;10.90;3.95;;;;;;;17.71;35.37;99237.90;1810455;77;21178;-60
2021/04/23 07:14:40;;;;;;;6.20;3.37;;;;;;;17.70;34.50;99235.45;1790353;77;21522;-59
2021/04/23 07:17:11;;;;;;;9.60;3.45;;;;;;;17.49;34.62;99236.64;1787551;78;21127;-60
2021/04/23 07:19:38;;;;;;;6.17;3.58;;;;;;;17.58;34.71;99237.20;1782505;79;21583;-63
2021/04/23 07:22:06;;;;;;;11.35;3.20;;;;;;;17.71;33.17;99235.21;1811084;79;21148;-62
2021/04/23 07:24:35;;;;;;;7.20;3.08;;;;;;;17.72;34.08;99234.18;1793844;79;21352;-62
2021/04/23 07:27:03;;;;;;;14.00;3.20;;;;;;;17.87;33.67;99230.60;1803444;79;20981;-66
2021/04/23 07:29:33;;;;;;;9.18;3.15;;;;;;;18.15;33.83;99230.08;1796511;79;21064;-61
2021/04/23 07:32:02;;;;;;;7.33;3.72;;;;;;;18.59;33.16;99220.85;1786393;79;20910;-62
2021/04/23 07:34:30;;;;;;;8.95;3.25;;;;;;;18.81;33.26;99222.01;1799840;79;21528;-61
2021/04/23 07:36:58;;;;;;;10.20;3.10;;;;;;;18.91;32.72;99217.40;1787147;79;21388;-61
2021/04/23 07:39:27;;;;;;;10.78;3.52;;;;;;;19.09;32.26;99225.42;1793692;79;21220;-63
2021/04/23 07:41:55;;;;;;;6.75;3.17;;;;;;;19.19;31.50;99232.96;1802575;79;21586;-63
2021/04/23 07:44:23;;;;;;;10.53;3.67;;;;;;;19.13;30.96;99219.05;1796258;79;20938;-63
2021/04/23 08:03:25;;;;;;;10.45;2.55;;;;;;;19.00;28.43;99216.03;1729629;81;22995;-66
2021/04/23 08:05:53;;;;;;;7.60;2.67;;;;;;;18.90;28.40;99222.52;1720606;83;21096;-63
2021/04/23 08:08:23;;;;;;;4.35;2.27;;;;;;;18.86;29.32;99213.23;1722549;82;21215;-61
2021/04/23 08:10:51;;;;;;;9.08;3.12;;;;;;;19.06;28.68;99221.83;1722582;83;21021;-63
2021/04/23 08:13:19;;;;;;;5.42;2.77;;;;;;;19.15;29.35;99220.98;1724906;81;21027;-62
2021/04/23 08:15:47;;;;;;;6.67;2.85;;;;;;;19.48;29.55;99209.97;1722904;83;21158;-62
2021/04/23 08:18:17;;;;;;;9.08;2.90;;;;;;;19.71;28.27;99207.80;1752803;81;21049;-63
2021/04/23 08:20:44;;;;;;;4.33;2.27;;;;;;;19.67;27.94;99209.33;1715761;83;21436;-62
2021/04/23 08:23:11;;;;;;;4.47;2.25;;;;;;;19.35;28.27;99224.17;1716689;82;21021;-63
2021/04/23 08:25:40;;;;;;;9.30;2.90;;;;;;;19.17;28.90;99221.56;1717401;81;21050;-64
2021/04/23 08:28:08;;;;;;;8.70;2.40;;;;;;;19.02;29.19;99225.53;1707246;82;21112;-60
2021/04/23 08:30:37;;;;;;;6.70;2.58;;;;;;;18.89;29.67;99224.91;1713329;83;20950;-60
2021/04/23 08:33:06;;;;;;;6.00;3.08;;;;;;;18.93;29.30;99224.72;1704928;83;21385;-56
2021/04/23 08:35:34;;;;;;;5.42;3.62;;;;;;;18.98;29.24;99228.38;1689289;83;21462;-55
2021/04/23 08:38:03;;;;;;;5.70;2.50;;;;;;;18.64;28.69;99214.25;1726009;82;21128;-57
2021/04/23 08:40:32;;;;;;;5.87;2.95;;;;;;;18.27;29.72;99230.16;1691977;81;21157;-54
2021/04/23 08:43:00;;;;;;;5.62;2.83;;;;;;;17.81;30.10;99220.72;1709703;83;21045;-55
2021/04/23 08:45:28;;;;;;;4.35;2.80;;;;;;;17.79;29.77;99226.03;1713925;83;22435;-55
2021/04/23 08:47:56;;;;;;;3.90;3.00;;;;;;;17.65;29.53;99220.50;1741882;81;20961;-59
2021/04/23 08:50:25;;;;;;;6.15;3.10;;;;;;;17.65;29.53;99220.50;1745747;81;21144;-63
2021/04/23 08:52:54;;;;;;;4.75;3.25;;;;;;;17.63;29.43;99221.22;1722638;82;21574;-54
2021/04/23 08:55:24;;;;;;;6.92;2.95;;;;;;;17.69;29.48;99217.65;1752534;81;21148;-60
2021/04/23 08:57:54;;;;;;;5.85;2.50;;;;;;;17.95;30.42;99209.82;1704968;83;21201;-60
2021/04/23 09:00:22;;;;;;;6.78;3.12;;;;;;;18.03;30.76;99213.56;1692501;83;21007;-63
2021/04/23 09:02:49;;;;;;;4.10;3.15;;;;;;;18.20;31.65;99209.20;1710225;83;21528;-59
2021/04/23 09:05:17;;;;;;;3.83;2.65;;;;;;;18.30;30.89;99216.25;1719265;83;21082;-60
2021/04/23 09:08:05;;;;;;;3.95;2.12;;;;;;;18.18;30.68;99216.17;1717825;83;21211;-60
2021/04/23 09:10:36;;;;;;;3.65;2.10;;;;;;;17.94;30.87;99218.41;1718660;83;21355;-61
2021/04/23 09:13:15;;;;;;;3.92;2.10;;;;;;;17.45;30.51;99226.52;1720211;82;21088;-62
2021/04/23 09:15:44;;;;;;;4.08;2.35;;;;;;;17.05;30.39;99230.87;1721572;83;21573;-61
2021/04/23 09:18:17;;;;;;;4.62;2.60;;;;;;;16.52;30.37;99238.92;1717321;83;21034;-62
2021/04/23 09:20:48;;;;;;;4.95;2.50;;;;;;;15.87;31.80;99231.42;1746273;81;20942;-60
2021/04/23 09:23:21;;;;;;;2.98;2.10;;;;;;;15.36;32.66;99236.59;1735103;82;22281;-60
2021/04/23 09:25:54;;;;;;;3.55;2.27;;;;;;;15.13;33.91;99232.67;1736265;82;21673;-61
2021/04/23 09:28:42;;;;;;;5.35;2.05;;;;;;;15.21;33.58;99225.77;1721688;82;21149;-63
2021/04/23 09:31:32;;;;;;;7.78;2.67;;;;;;;15.32;34.28;99229.18;1724787;83;21060;-60
2021/04/23 09:34:05;;;;;;;4.55;2.55;;;;;;;15.68;33.64;99228.25;1712309;83;20963;-60
2021/04/23 09:36:46;;;;;;;5.35;2.52;;;;;;;16.12;34.27;99226.17;1821032;77;22741;-60
2021/04/23 09:39:18;;;;;;;4.83;2.52;;;;;;;16.19;33.14;99220.80;1783798;78;21112;-64
2021/04/23 09:42:05;;;;;;;3.47;2.20;;;;;;;15.95;33.01;99225.83;1776819;78;21187;-63
2021/04/23 09:44:43;;;;;;;5.17;2.52;;;;;;;15.66;33.18;99230.32;1776968;79;21001;-60
2021/04/23 09:47:18;;;;;;;4.37;2.55;;;;;;;15.35;32.82;99229.60;1791281;77;21017;-60
2021/04/23 09:49:55;;;;;;;3.15;2.10;;;;;;;15.02;33.64;99227.91;1796484;78;20989;-61
2021/04/23 09:52:25;;;;;;;6.15;2.50;;;;;;;14.91;34.37;99226.69;1787119;79;21128;-61
2021/04/23 09:54:56;;;;;;;3.75;1.90;;;;;;;14.68;34.20;99225.70;1796477;78;21351;-61
2021/04/23 09:57:31;;;;;;;12.88;3.12;;;;;;;14.34;35.16;99225.80;1800803;79;20969;-62
2021/04/23 10:00:00;;;;;;;3.67;2.33;;;;;;;14.13;35.90;99239.28;1781356;78;20942;-62
2021/04/23 10:02:29;;;;;;;7.10;2.20;;;;;;;13.93;35.75;99236.48;1792171;79;20909;-61
2021/04/23 10:04:57;;;;;;;6.85;2.20;;;;;;;13.76;36.51;99231.66;1784162;79;21115;-61
2021/04/23 10:07:31;;;;;;;7.00;2.75;;;;;;;13.60;37.09;99238.97;1790980;79;21534;-62
2021/04/23 10:10:11;;;;;;;5.87;2.15;;;;;;;13.54;36.93;99235.73;1776918;78;20961;-61
2021/04/23 10:12:50;;;;;;;4.20;2.35;;;;;;;13.49;37.42;99230.66;1785287;78;21092;-61
2021/04/23 10:15:24;;;;;;;4.33;2.35;;;;;;;13.43;36.92;99222.90;1776791;79;20961;-61
2021/04/23 10:18:06;;;;;;;7.30;3.90;;;;;;;13.31;37.52;99224.47;1776735;79;21248;-61
2021/04/23 10:20:42;;;;;;;3.98;2.67;;;;;;;13.41;38.03;99215.59;1790332;78;21267;-61
2021/04/23 10:23:11;;;;;;;6.78;1.98;;;;;;;13.87;38.12;99213.73;1792380;79;21554;-61
2021/04/23 10:25:38;;;;;;;4.17;2.27;;;;;;;14.44;38.52;99199.51;1784600;79;21542;-63
2021/04/23 10:28:09;;;;;;;2.90;1.80;;;;;;;14.99;37.33;99204.23;1795139;79;21040;-59
2021/04/23 10:30:42;;;;;;;3.30;1.67;;;;;;;15.48;35.58;99191.78;1786156;78;21084;-62
2021/04/23 10:33:13;;;;;;;4.08;2.20;;;;;;;15.90;32.79;99183.23;1794442;78;21439;-60
2021/04/23 10:35:43;;;;;;;4.15;1.40;;;;;;;16.28;32.00;99189.47;1781960;79;21096;-60
2021/04/23 10:38:14;;;;;;;4.87;1.50;;;;;;;16.64;30.88;99184.86;1743231;81;21142;-60
2021/04/23 10:40:44;;;;;;;4.62;1.98;;;;;;;16.92;30.66;99181.80;1721148;82;21127;-62
2021/04/23 10:43:17;;;;;;;6.87;1.98;;;;;;;17.09;30.73;99177.00;1766985;79;21407;-61
2021/04/23 10:46:04;;;;;;;7.83;2.55;;;;;;;17.31;29.87;99182.00;1773918;79;21373;-61
2021/04/23 10:48:45;;;;;;;4.07;2.07;;;;;;;17.34;30.17;99193.11;1773468;79;21002;-60
2021/04/23 10:51:24;;;;;;;4.25;2.10;;;;;;;17.27;29.92;99183.77;1765701;78;21623;-63
2021/04/23 10:53:54;;;;;;;2.80;1.52;;;;;;;17.00;29.53;99189.56;1773383;79;21010;-62
2021/04/23 10:56:33;;;;;;;4.30;2.10;;;;;;;16.71;29.90;99182.98;1776556;79;20966;-60
2021/04/23 10:59:03;;;;;;;4.20;1.95;;;;;;;16.48;29.90;99183.98;1767645;79;21365;-62
2021/04/23 11:01:36;;;;;;;4.80;2.17;;;;;;;16.24;30.77;99186.09;1777034;79;21073;-61
2021/04/23 11:04:14;;;;;;;3.52;2.08;;;;;;;16.09;30.93;99183.66;1775787;79;20986;-62
2021/04/23 11:06:46;;;;;;;5.30;2.12;;;;;;;15.89;31.01;99181.57;1779840;79;21840;-60
2021/04/23 11:09:16;;;;;;;2.98;2.08;;;;;;;15.67;31.13;99189.05;1787517;79;21099;-60
2021/04/23 11:12:06;;;;;;;3.40;1.90;;;;;;;15.44;31.41;99191.33;1771192;78;21350;-62
2021/04/23 11:14:36;;;;;;;2.72;1.87;;;;;;;15.30;32.55;99193.19;1732986;82;21625;-59
2021/04/23 11:17:22;;;;;;;7.62;2.37;;;;;;;15.29;32.86;99199.60;1716176;82;21092;-62
2021/04/23 11:19:51;;;;;;;7.30;2.17;;;;;;;15.21;33.23;99208.35;1766232;79;21582;-60
2021/04/23 11:22:21;;;;;;;3.72;2.40;;;;;;;15.05;33.27;99203.40;1796135;79;21196;-64
2021/04/23 11:25:12;;;;;;;6.37;2.45;;;;;;;14.83;33.43;99207.59;1753847;79;21351;-61
2021/04/23 11:28:08;;;;;;;5.90;2.12;;;;;;;14.68;34.12;99204.28;1746966;79;21005;-62
2021/04/23 11:31:07;;;;;;;5.10;2.35;;;;;;;14.70;34.64;99200.87;1780056;79;20990;-62
2021/04/23 11:33:54;;;;;;;6.90;2.42;;;;;;;14.85;34.59;99192.69;1747732;79;21040;-60
2021/04/23 11:36:38;;;;;;;3.10;1.72;;;;;;;15.02;34.33;99198.44;1771090;79;21136;-60
2021/04/23 11:39:08;;;;;;;3.12;2.15;;;;;;;15.09;33.21;99188.58;1782719;79;22093;-61
2021/04/23 11:41:37;;;;;;;2.87;2.00;;;;;;;15.17;33.10;99192.39;1805083;79;20981;-60
2021/04/23 11:44:40;;;;;;;4.03;2.10;;;;;;;15.16;33.11;99193.41;1782639;79;21001;-62
2021/04/23 11:47:08;;;;;;;2.65;1.98;;;;;;;14.97;33.28;99211.13;1779051;79;21198;-61
2021/04/23 11:49:36;;;;;;;3.95;2.15;;;;;;;14.56;33.48;99217.13;1782629;79;20977;-61
2021/04/23 11:52:04;;;;;;;8.38;2.30;;;;;;;14.29;34.06;99221.53;1782635;79;21362;-60
2021/04/23 11:54:42;;;;;;;6.47;1.82;;;;;;;14.06;34.63;99233.05;1782567;79;21132;-60
2021/04/23 11:57:13;;;;;;;15.75;5.45;;;;;;;13.94;35.15;99227.96;1810951;78;20910;-62
2021/04/23 12:00:00;;;;;;;2.92;2.12;;;;;;;13.90;35.30;99233.38;1798148;77;21202;-61
2021/04/23 12:02:43;;;;;;;3.02;1.50;;;;;;;13.85;34.55;99233.14;1782927;79;20883;-60
2021/04/23 12:05:45;;;;;;;3.00;2.00;;;;;;;13.68;34.83;99235.32;1804547;79;23691;-61
2021/04/23 12:08:18;;;;;;;3.62;2.10;;;;;;;13.57;35.29;99234.02;1764282;79;21588;-60
2021/04/23 12:11:04;;;;;;;5.30;2.50;;;;;;;13.51;36.15;99241.47;1786166;79;21605;-62
2021/04/23 12:13:40;;;;;;;3.47;2.12;;;;;;;13.53;36.74;99226.59;1782905;79;21454;-61